Time;durP1;ratioP1;P1;durP2;ratioP2;P2;SDS_P1;SDS_P2;PMS_P1;PMS_P2;Temp;Humidity;BMP_temperature;BMP_pressure;BME280_temperature;BME280_humidity;BME280_pressure;Samples;Min_cycle;Max_cycle;Signal;HPM_P1;HPM_P2
2022/05/30 00:01:55;;;;;;;3.78;1.38;;;;;;;;;;5094440;28;20044;-88
2022/05/30 00:04:21;;;;;;;1.30;0.70;;;;;;;;;;5094433;28;20679;-89
2022/05/30 00:06:47;;;;;;;2.42;1.10;;;;;;;;;;5094429;28;20447;-90
2022/05/30 00:09:13;;;;;;;2.70;1.02;;;;;;;;;;5094380;28;20376;-89
2022/05/30 00:11:40;;;;;;;4.55;1.17;;;;;;;;;;5094498;28;20128;-87
2022/05/30 00:14:06;;;;;;;4.03;1.15;;;;;;;;;;5094071;28;20127;-88
2022/05/30 00:16:33;;;;;;;2.40;1.00;;;;;;;;;;5094153;28;20116;-90
2022/05/30 00:18:59;;;;;;;4.18;1.20;;;;;;;;;;5094680;28;20479;-89
2022/05/30 00:21:26;;;;;;;4.97;1.33;;;;;;;;;;5094576;28;20521;-87
2022/05/30 00:23:55;;;;;;;4.00;1.30;;;;;;;;;;5094338;28;20403;-87
2022/05/30 00:26:22;;;;;;;3.25;1.25;;;;;;;;;;5110879;28;20058;-88
2022/05/30 00:28:49;;;;;;;3.45;1.10;;;;;;;;;;5094307;28;20399;-86
2022/05/30 00:31:15;;;;;;;3.97;1.08;;;;;;;;;;5094328;28;20039;-84
2022/05/30 00:33:42;;;;;;;2.47;1.15;;;;;;;;;;5111013;28;20044;-85
2022/05/30 00:36:08;;;;;;;2.03;1.20;;;;;;;;;;5093884;28;20036;-82
2022/05/30 00:38:34;;;;;;;5.32;1.27;;;;;;;;;;5093596;28;20063;-87
2022/05/30 00:41:00;;;;;;;2.28;1.02;;;;;;;;;;5094061;28;20055;-88
2022/05/30 00:43:28;;;;;;;2.42;1.00;;;;;;;;;;5094155;28;20055;-90
2022/05/30 00:45:55;;;;;;;5.40;1.83;;;;;;;;;;5094173;28;20051;-86
2022/05/30 00:48:24;;;;;;;3.22;1.55;;;;;;;;;;5094073;28;20436;-87
2022/05/30 00:50:51;;;;;;;5.97;1.50;;;;;;;;;;5094039;28;20122;-90
2022/05/30 00:53:18;;;;;;;4.70;1.73;;;;;;;;;;5094192;28;20175;-87
2022/05/30 00:55:44;;;;;;;3.40;1.75;;;;;;;;;;5093878;28;20047;-91
2022/05/30 00:58:12;;;;;;;4.35;1.27;;;;;;;;;;5093962;28;20096;-88
2022/05/30 01:00:39;;;;;;;4.43;1.80;;;;;;;;;;5093783;28;20518;-87
2022/05/30 01:08:34;;;;;;;2.35;1.40;;;;;;;;;;5113686;28;20040;-88
2022/05/30 01:11:00;;;;;;;4.80;1.50;;;;;;;;;;5097597;28;20042;-87
2022/05/30 01:13:27;;;;;;;4.82;1.55;;;;;;;;;;5097475;28;20040;-88
2022/05/30 01:15:54;;;;;;;5.15;1.63;;;;;;;;;;5097374;28;20039;-87
2022/05/30 01:18:23;;;;;;;4.90;1.83;;;;;;;;;;5097419;28;20421;-89
2022/05/30 01:21:08;;;;;;;6.78;1.77;;;;;;;;;;5097321;28;20085;-87
2022/05/30 01:23:52;;;;;;;9.10;1.77;;;;;;;;;;5096981;28;20043;-85
2022/05/30 01:26:36;;;;;;;2.25;1.30;;;;;;;;;;5097450;28;20050;-87
2022/05/30 01:29:05;;;;;;;4.53;1.63;;;;;;;;;;5097206;28;20460;-87
2022/05/30 01:31:31;;;;;;;3.75;1.67;;;;;;;;;;5097177;28;20042;-90
2022/05/30 01:33:57;;;;;;;2.55;1.40;;;;;;;;;;5097197;28;20042;-87
2022/05/30 01:36:24;;;;;;;4.50;1.58;;;;;;;;;;5097106;28;20116;-86
2022/05/30 01:38:50;;;;;;;5.97;1.38;;;;;;;;;;5096741;28;20060;-84
2022/05/30 01:41:16;;;;;;;4.78;1.58;;;;;;;;;;5097113;28;20031;-85
2022/05/30 01:43:42;;;;;;;3.85;1.67;;;;;;;;;;5096895;28;20626;-86
2022/05/30 01:46:10;;;;;;;6.80;1.90;;;;;;;;;;5096872;28;20047;-83
2022/05/30 01:48:36;;;;;;;3.30;1.50;;;;;;;;;;5096682;28;20032;-82
2022/05/30 01:51:02;;;;;;;10.43;1.85;;;;;;;;;;5096422;28;20097;-82
2022/05/30 01:53:29;;;;;;;5.50;1.70;;;;;;;;;;5096656;28;20036;-85
2022/05/30 01:55:55;;;;;;;2.70;1.77;;;;;;;;;;5113644;28;20067;-84
2022/05/30 01:58:21;;;;;;;3.83;1.52;;;;;;;;;;5096866;28;20031;-82
2022/05/30 02:00:47;;;;;;;3.67;1.70;;;;;;;;;;5096818;28;20071;-82
2022/05/30 02:03:13;;;;;;;2.95;1.65;;;;;;;;;;5096095;28;20167;-82
2022/05/30 02:05:40;;;;;;;3.65;1.70;;;;;;;;;;5113681;28;20039;-83
2022/05/30 02:08:07;;;;;;;6.25;2.25;;;;;;;;;;5096399;28;20039;-83
2022/05/30 02:10:33;;;;;;;5.20;1.77;;;;;;;;;;5096257;28;20130;-84
2022/05/30 02:12:59;;;;;;;6.57;1.80;;;;;;;;;;5096227;28;20425;-84
2022/05/30 02:15:25;;;;;;;2.65;1.70;;;;;;;;;;5095932;28;20043;-83
2022/05/30 02:17:52;;;;;;;3.00;1.38;;;;;;;;;;5095940;28;20039;-83
2022/05/30 02:20:18;;;;;;;2.95;1.60;;;;;;;;;;5095059;28;20046;-81
2022/05/30 02:22:45;;;;;;;3.67;1.63;;;;;;;;;;5095689;28;20486;-83
2022/05/30 02:25:12;;;;;;;5.90;1.75;;;;;;;;;;5112693;28;20054;-84
2022/05/30 02:27:38;;;;;;;5.80;1.70;;;;;;;;;;5095613;28;20122;-83
2022/05/30 02:30:04;;;;;;;6.70;1.90;;;;;;;;;;5095859;28;20039;-84
2022/05/30 02:32:30;;;;;;;6.32;1.92;;;;;;;;;;5095879;28;20039;-86
2022/05/30 02:37:41;;;;;;;4.82;2.05;;;;;;;;;;5112824;28;20491;-87
2022/05/30 02:40:07;;;;;;;5.32;1.83;;;;;;;;;;5095316;28;20054;-86
2022/05/30 02:42:33;;;;;;;4.55;1.45;;;;;;;;;;5095398;28;20483;-86
2022/05/30 02:44:59;;;;;;;5.55;1.83;;;;;;;;;;5095376;28;20032;-84
2022/05/30 02:47:25;;;;;;;2.92;1.60;;;;;;;;;;5095251;28;20039;-85
2022/05/30 02:49:51;;;;;;;8.02;2.00;;;;;;;;;;5095412;28;20494;-83
2022/05/30 02:52:17;;;;;;;4.90;1.90;;;;;;;;;;5095049;28;20079;-85
2022/05/30 02:54:43;;;;;;;5.78;2.35;;;;;;;;;;5095174;28;20528;-89
2022/05/30 02:57:09;;;;;;;3.95;2.63;;;;;;;;;;5095275;28;20064;-85
2022/05/30 02:59:35;;;;;;;7.43;2.00;;;;;;;;;;5095385;28;20044;-85
2022/05/30 03:02:01;;;;;;;2.55;1.65;;;;;;;;;;5094972;28;20040;-87
2022/05/30 03:04:27;;;;;;;3.72;1.70;;;;;;;;;;5095075;28;20351;-83
2022/05/30 03:06:53;;;;;;;4.18;1.92;;;;;;;;;;5094882;28;20124;-87
2022/05/30 03:09:19;;;;;;;6.57;1.88;;;;;;;;;;5112155;28;20042;-86
2022/05/30 03:11:45;;;;;;;5.65;1.95;;;;;;;;;;5095375;28;20160;-88
2022/05/30 03:14:12;;;;;;;3.78;1.83;;;;;;;;;;5095181;28;20039;-88
2022/05/30 03:16:37;;;;;;;8.75;2.08;;;;;;;;;;5094980;28;20042;-88
2022/05/30 03:19:03;;;;;;;5.03;2.13;;;;;;;;;;5095284;28;20491;-87
2022/05/30 03:21:29;;;;;;;2.92;2.00;;;;;;;;;;5094928;28;20108;-88
2022/05/30 03:23:56;;;;;;;7.75;2.28;;;;;;;;;;5094855;28;20039;-87
2022/05/30 03:26:22;;;;;;;4.18;1.90;;;;;;;;;;5095283;28;20043;-87
2022/05/30 03:28:48;;;;;;;6.03;1.80;;;;;;;;;;5094972;28;20036;-90
2022/05/30 03:31:14;;;;;;;5.80;1.95;;;;;;;;;;5112078;28;20491;-88
2022/05/30 03:33:40;;;;;;;5.28;1.83;;;;;;;;;;5094793;28;20036;-85
2022/05/30 03:36:17;;;;;;;6.57;2.72;;;;;;;;;;5094739;28;20405;-86
2022/05/30 03:38:43;;;;;;;4.55;1.80;;;;;;;;;;5094550;28;20055;-85
2022/05/30 03:41:09;;;;;;;4.00;1.95;;;;;;;;;;5095039;28;20100;-89
2022/05/30 03:43:35;;;;;;;5.97;2.10;;;;;;;;;;5094705;28;20490;-88
2022/05/30 03:46:01;;;;;;;3.33;2.20;;;;;;;;;;5094895;28;20040;-89
2022/05/30 03:48:27;;;;;;;2.70;1.77;;;;;;;;;;5095379;28;20145;-86
2022/05/30 03:50:53;;;;;;;3.47;2.20;;;;;;;;;;5094989;28;20079;-90
2022/05/30 03:53:19;;;;;;;5.22;2.15;;;;;;;;;;5094863;28;20046;-88
2022/05/30 03:55:45;;;;;;;3.28;2.13;;;;;;;;;;5094531;28;20421;-86
2022/05/30 03:58:12;;;;;;;4.63;2.03;;;;;;;;;;5094631;28;20138;-85
2022/05/30 04:00:40;;;;;;;5.22;1.90;;;;;;;;;;5094260;28;20416;-84
2022/05/30 04:03:06;;;;;;;4.95;1.80;;;;;;;;;;5094157;28;20046;-87
2022/05/30 04:05:32;;;;;;;3.45;1.88;;;;;;;;;;5093880;28;20466;-84
2022/05/30 04:07:58;;;;;;;6.90;2.20;;;;;;;;;;5093873;28;20032;-85
2022/05/30 04:10:25;;;;;;;3.60;1.83;;;;;;;;;;5094218;28;20138;-85
2022/05/30 04:12:51;;;;;;;6.72;2.33;;;;;;;;;;5094118;28;20475;-83
2022/05/30 04:15:19;;;;;;;3.20;1.90;;;;;;;;;;5093751;28;20414;-84
2022/05/30 04:17:45;;;;;;;5.38;2.05;;;;;;;;;;5111058;28;20103;-84
2022/05/30 04:20:11;;;;;;;6.78;2.00;;;;;;;;;;5093759;28;20122;-83
2022/05/30 04:22:37;;;;;;;4.80;2.00;;;;;;;;;;5093622;28;20046;-83
2022/05/30 04:25:03;;;;;;;4.07;2.03;;;;;;;;;;5094031;28;20390;-83
2022/05/30 04:27:29;;;;;;;3.53;1.52;;;;;;;;;;5094024;28;20039;-84
2022/05/30 04:29:55;;;;;;;3.42;1.85;;;;;;;;;;5093576;28;20039;-85
2022/05/30 04:32:22;;;;;;;3.25;2.00;;;;;;;;;;5093649;28;20569;-84
2022/05/30 04:34:48;;;;;;;4.88;1.70;;;;;;;;;;5094031;28;20130;-88
2022/05/30 04:37:15;;;;;;;4.65;1.95;;;;;;;;;;5094503;28;20056;-88
2022/05/30 04:39:41;;;;;;;4.93;1.95;;;;;;;;;;5094091;28;20051;-87
2022/05/30 04:42:07;;;;;;;3.42;1.70;;;;;;;;;;5095379;28;20525;-91
2022/05/30 04:44:35;;;;;;;6.30;2.08;;;;;;;;;;5098367;28;20039;-91
2022/05/30 04:47:00;;;;;;;4.43;1.55;;;;;;;;;;5098302;28;20099;-87
2022/05/30 04:49:27;;;;;;;2.28;1.73;;;;;;;;;;5115376;28;20039;-87
2022/05/30 04:51:53;;;;;;;3.83;1.90;;;;;;;;;;5098286;28;20491;-90
2022/05/30 04:54:19;;;;;;;5.80;1.80;;;;;;;;;;5097893;28;20499;-89
2022/05/30 04:56:46;;;;;;;4.50;1.73;;;;;;;;;;5098133;28;20122;-90
2022/05/30 04:59:12;;;;;;;3.20;1.65;;;;;;;;;;5098120;28;20043;-89
2022/05/30 05:01:38;;;;;;;3.35;2.20;;;;;;;;;;5097715;28;20047;-89
2022/05/30 05:04:05;;;;;;;6.88;2.10;;;;;;;;;;5097808;28;20044;-89
2022/05/30 05:06:31;;;;;;;3.50;1.98;;;;;;;;;;5097714;28;20561;-89
2022/05/30 05:09:05;;;;;;;3.30;1.75;;;;;;;;;;5097501;28;20040;-88
2022/05/30 05:11:32;;;;;;;3.70;1.55;;;;;;;;;;5097756;28;20039;-88
2022/05/30 05:13:58;;;;;;;4.10;1.55;;;;;;;;;;5114530;28;20044;-87
2022/05/30 05:16:26;;;;;;;6.78;2.35;;;;;;;;;;5097888;28;20092;-89
2022/05/30 05:18:52;;;;;;;3.63;1.70;;;;;;;;;;5097413;28;20047;-85
2022/05/30 05:21:22;;;;;;;5.93;1.83;;;;;;;;;;5097544;28;20122;-90
2022/05/30 05:23:48;;;;;;;6.17;1.70;;;;;;;;;;5097619;28;20509;-89
2022/05/30 05:26:15;;;;;;;4.57;2.10;;;;;;;;;;5097603;28;20035;-85
2022/05/30 05:28:41;;;;;;;2.58;1.48;;;;;;;;;;5097108;28;20653;-87
2022/05/30 05:31:07;;;;;;;3.03;1.85;;;;;;;;;;5097177;28;20123;-89
2022/05/30 05:33:33;;;;;;;3.90;1.95;;;;;;;;;;5097151;28;20139;-86
2022/05/30 05:35:59;;;;;;;5.40;1.77;;;;;;;;;;5097336;28;20045;-84
2022/05/30 05:38:25;;;;;;;4.20;1.90;;;;;;;;;;5096958;28;20120;-87
2022/05/30 05:40:52;;;;;;;4.45;1.83;;;;;;;;;;5096958;28;20044;-87
2022/05/30 05:43:18;;;;;;;3.17;1.70;;;;;;;;;;5096577;28;20475;-86
2022/05/30 05:45:46;;;;;;;3.67;1.63;;;;;;;;;;5096838;28;20098;-85
2022/05/30 05:48:13;;;;;;;2.35;1.60;;;;;;;;;;5096890;28;20044;-87
2022/05/30 05:50:40;;;;;;;3.42;1.35;;;;;;;;;;5113857;28;20058;-86
2022/05/30 05:53:06;;;;;;;3.05;1.40;;;;;;;;;;5096014;28;20138;-85
2022/05/30 05:55:32;;;;;;;2.65;1.33;;;;;;;;;;5096143;28;20035;-86
2022/05/30 05:57:58;;;;;;;4.03;1.30;;;;;;;;;;5096801;28;20294;-89
2022/05/30 06:00:24;;;;;;;5.65;1.85;;;;;;;;;;5096281;28;20044;-85
2022/05/30 06:02:50;;;;;;;2.15;1.13;;;;;;;;;;5096619;28;20502;-85
2022/05/30 06:05:16;;;;;;;2.33;1.30;;;;;;;;;;5113338;28;20036;-82
2022/05/30 06:07:43;;;;;;;3.53;1.30;;;;;;;;;;5096125;28;20038;-82
2022/05/30 06:10:11;;;;;;;4.72;1.88;;;;;;;;;;5096535;28;20089;-88
2022/05/30 06:12:40;;;;;;;2.40;1.25;;;;;;;;;;5096323;28;20083;-86
2022/05/30 06:15:06;;;;;;;2.67;1.98;;;;;;;;;;5096498;28;20079;-86
2022/05/30 06:17:32;;;;;;;1.98;1.60;;;;;;;;;;5096556;28;20089;-88
2022/05/30 06:19:59;;;;;;;2.88;1.50;;;;;;;;;;5096440;28;20475;-87
2022/05/30 06:22:25;;;;;;;6.32;1.50;;;;;;;;;;5096166;28;20051;-86
2022/05/30 06:24:51;;;;;;;2.60;1.17;;;;;;;;;;5096205;28;20046;-85
2022/05/30 06:27:19;;;;;;;3.80;1.23;;;;;;;;;;5096304;28;20039;-88
2022/05/30 06:29:45;;;;;;;1.83;1.02;;;;;;;;;;5096203;28;20403;-89
2022/05/30 06:32:11;;;;;;;2.80;1.20;;;;;;;;;;5096390;28;20082;-88
2022/05/30 06:34:37;;;;;;;4.85;0.93;;;;;;;;;;5113064;28;20040;-87
2022/05/30 06:37:03;;;;;;;1.95;1.10;;;;;;;;;;5096280;28;20050;-89
2022/05/30 06:39:29;;;;;;;1.80;0.88;;;;;;;;;;5095609;28;20491;-88
2022/05/30 06:41:55;;;;;;;0.68;0.63;;;;;;;;;;5095575;28;20050;-87
2022/05/30 06:44:21;;;;;;;1.88;1.00;;;;;;;;;;5095664;28;20046;-89
2022/05/30 06:46:47;;;;;;;4.35;1.00;;;;;;;;;;5095803;28;20400;-85
2022/05/30 06:49:13;;;;;;;1.48;0.80;;;;;;;;;;5112572;28;20047;-87
2022/05/30 06:51:40;;;;;;;2.30;1.02;;;;;;;;;;5095801;28;20441;-87
2022/05/30 06:54:07;;;;;;;0.90;0.90;;;;;;;;;;5095340;28;20052;-87
2022/05/30 06:56:34;;;;;;;1.05;0.73;;;;;;;;;;5095685;28;20043;-86
2022/05/30 06:59:00;;;;;;;2.38;0.80;;;;;;;;;;5095123;28;20399;-84
2022/05/30 07:01:29;;;;;;;3.22;0.82;;;;;;;;;;5095128;28;20399;-90
2022/05/30 07:03:55;;;;;;;3.03;0.90;;;;;;;;;;5095653;28;20483;-84
2022/05/30 07:06:22;;;;;;;1.85;1.00;;;;;;;;;;5094389;28;20035;-82
2022/05/30 07:08:48;;;;;;;2.97;0.90;;;;;;;;;;5094939;28;20036;-86
2022/05/30 07:11:15;;;;;;;1.85;0.93;;;;;;;;;;5094993;28;20058;-88
2022/05/30 07:13:42;;;;;;;2.42;0.90;;;;;;;;;;5095237;28;20039;-82
2022/05/30 07:16:09;;;;;;;1.25;0.80;;;;;;;;;;5094914;28;20046;-85
2022/05/30 07:18:35;;;;;;;2.97;0.90;;;;;;;;;;5094815;28;20055;-85
2022/05/30 07:21:03;;;;;;;0.50;0.50;;;;;;;;;;5095051;28;20055;-86
2022/05/30 07:23:30;;;;;;;1.98;1.23;;;;;;;;;;5111991;28;20164;-86
2022/05/30 07:25:59;;;;;;;1.38;0.65;;;;;;;;;;5094933;28;20034;-84
2022/05/30 07:28:28;;;;;;;1.08;0.60;;;;;;;;;;5094677;28;20443;-85
2022/05/30 07:30:55;;;;;;;1.55;0.68;;;;;;;;;;5094992;28;20039;-87
2022/05/30 07:33:21;;;;;;;1.92;0.70;;;;;;;;;;5094717;28;20092;-84
2022/05/30 07:35:47;;;;;;;1.42;0.93;;;;;;;;;;5094521;28;20043;-86
2022/05/30 07:38:13;;;;;;;1.45;1.05;;;;;;;;;;5111680;28;20039;-90
2022/05/30 07:40:39;;;;;;;1.73;0.80;;;;;;;;;;5094548;28;20039;-87
2022/05/30 07:43:05;;;;;;;0.80;0.70;;;;;;;;;;5094872;28;20085;-86
2022/05/30 07:45:31;;;;;;;1.02;0.80;;;;;;;;;;5094427;28;20035;-88
2022/05/30 07:48:00;;;;;;;1.52;0.73;;;;;;;;;;5111313;28;20044;-85
2022/05/30 07:50:25;;;;;;;1.17;0.65;;;;;;;;;;5111360;28;20078;-84
2022/05/30 07:52:51;;;;;;;2.05;0.80;;;;;;;;;;5094162;28;20043;-87
2022/05/30 07:55:17;;;;;;;1.10;0.60;;;;;;;;;;5094967;28;20039;-85
2022/05/30 07:57:53;;;;;;;0.90;0.70;;;;;;;;;;5094550;28;20051;-85
2022/05/30 08:00:20;;;;;;;1.10;0.52;;;;;;;;;;5111618;28;20043;-89
2022/05/30 08:02:46;;;;;;;1.27;0.70;;;;;;;;;;5094580;28;20046;-93
2022/05/30 08:05:13;;;;;;;0.63;0.60;;;;;;;;;;5094773;28;20470;-88
2022/05/30 08:07:39;;;;;;;2.40;0.50;;;;;;;;;;5094202;28;20039;-86
2022/05/30 08:10:09;;;;;;;2.60;0.80;;;;;;;;;;5094233;28;20035;-85
2022/05/30 08:12:35;;;;;;;2.63;0.80;;;;;;;;;;5111323;28;20107;-92
2022/05/30 08:15:01;;;;;;;1.98;0.70;;;;;;;;;;5094128;28;20047;-88
2022/05/30 08:17:27;;;;;;;1.48;0.70;;;;;;;;;;5093308;28;20039;-88
2022/05/30 08:19:53;;;;;;;1.10;1.00;;;;;;;;;;5094153;28;20046;-90
2022/05/30 08:22:22;;;;;;;1.30;0.70;;;;;;;;;;5093854;28;20224;-86
2022/05/30 08:24:48;;;;;;;3.15;0.80;;;;;;;;;;5094070;28;20062;-87
2022/05/30 08:27:14;;;;;;;2.65;0.70;;;;;;;;;;5094104;28;20048;-87
2022/05/30 08:29:42;;;;;;;1.05;0.85;;;;;;;;;;5094248;28;20085;-89
2022/05/30 08:32:09;;;;;;;1.10;0.93;;;;;;;;;;5110810;28;20639;-87
2022/05/30 08:34:39;;;;;;;1.15;0.90;;;;;;;;;;5094085;28;20036;-88
2022/05/30 08:37:06;;;;;;;1.83;0.93;;;;;;;;;;5094179;28;20138;-87
2022/05/30 08:42:19;;;;;;;3.33;1.17;;;;;;;;;;5111079;28;20048;-86
2022/05/30 08:44:45;;;;;;;2.13;0.95;;;;;;;;;;5093808;28;20043;-88
2022/05/30 08:47:19;;;;;;;2.88;1.30;;;;;;;;;;5094278;28;20476;-90
2022/05/30 08:49:50;;;;;;;2.15;1.00;;;;;;;;;;5094163;28;20065;-88
2022/05/30 08:52:19;;;;;;;1.90;1.10;;;;;;;;;;5110880;28;20047;-86
2022/05/30 08:54:59;;;;;;;0.82;0.70;;;;;;;;;;5110618;28;20039;-85
2022/05/30 08:57:33;;;;;;;0.68;0.60;;;;;;;;;;5093738;28;20074;-86
2022/05/30 09:00:05;;;;;;;2.88;0.90;;;;;;;;;;5093924;28;20047;-87
2022/05/30 09:02:35;;;;;;;2.63;0.85;;;;;;;;;;5093522;28;20596;-85
2022/05/30 09:05:06;;;;;;;1.83;0.90;;;;;;;;;;5093783;28;20457;-87
2022/05/30 09:07:34;;;;;;;1.30;0.60;;;;;;;;;;5093571;28;20284;-87
2022/05/30 09:10:00;;;;;;;1.20;0.52;;;;;;;;;;5094478;28;20066;-92
2022/05/30 09:12:29;;;;;;;2.53;0.73;;;;;;;;;;5094617;28;20043;-87
2022/05/30 09:14:57;;;;;;;3.92;0.82;;;;;;;;;;5094854;28;20188;-91
2022/05/30 09:17:46;;;;;;;1.48;0.70;;;;;;;;;;5093618;28;20032;-84
2022/05/30 09:20:15;;;;;;;1.20;0.73;;;;;;;;;;5086219;28;20713;-85
2022/05/30 09:22:41;;;;;;;2.38;0.90;;;;;;;;;;5095380;28;20054;-91
2022/05/30 09:27:54;;;;;;;14.27;2.05;;;;;;;;;;5112726;28;20157;-84
2022/05/30 09:30:23;;;;;;;5.75;0.93;;;;;;;;;;5098716;28;20074;-86
2022/05/30 09:33:07;;;;;;;4.38;0.75;;;;;;;;;;5098705;28;20050;-84
2022/05/30 09:35:34;;;;;;;8.38;0.90;;;;;;;;;;5098259;28;20505;-84
2022/05/30 09:38:20;;;;;;;5.55;0.73;;;;;;;;;;5098205;28;20147;-84
2022/05/30 09:40:54;;;;;;;3.15;0.50;;;;;;;;;;5096244;28;20091;-84
2022/05/30 09:43:39;;;;;;;3.90;1.27;;;;;;;;;;5093562;28;20040;-88
2022/05/30 09:46:16;;;;;;;5.57;0.98;;;;;;;;;;5093622;28;20070;-85
2022/05/30 09:48:58;;;;;;;3.42;0.75;;;;;;;;;;5092974;28;20075;-84
2022/05/30 09:51:45;;;;;;;0.88;0.60;;;;;;;;;;5093040;28;20044;-84
2022/05/30 09:54:13;;;;;;;0.98;0.52;;;;;;;;;;5093059;28;20382;-87
2022/05/30 09:56:41;;;;;;;1.20;0.40;;;;;;;;;;5093364;28;20039;-85
2022/05/30 09:59:07;;;;;;;0.35;0.35;;;;;;;;;;5092845;28;20039;-84
2022/05/30 10:01:35;;;;;;;0.82;0.32;;;;;;;;;;5110975;28;20039;-90
2022/05/30 10:04:14;;;;;;;0.40;0.40;;;;;;;;;;5093266;28;20066;-87
2022/05/30 10:06:40;;;;;;;0.70;0.50;;;;;;;;;;5093854;28;20044;-88
2022/05/30 10:09:12;;;;;;;1.75;1.40;;;;;;;;;;5111136;28;20050;-90
2022/05/30 10:11:38;;;;;;;1.40;0.40;;;;;;;;;;5093597;28;20515;-83
2022/05/30 10:14:19;;;;;;;0.30;0.30;;;;;;;;;;5093367;28;20043;-85
2022/05/30 10:16:45;;;;;;;0.65;0.38;;;;;;;;;;5093610;28;20575;-88
2022/05/30 10:19:22;;;;;;;1.67;0.30;;;;;;;;;;5093966;28;20043;-85
2022/05/30 10:30:22;;;;;;;0.98;0.40;;;;;;;;;;5111090;28;20093;-88
2022/05/30 10:33:04;;;;;;;0.45;0.40;;;;;;;;;;5094132;28;20039;-83
2022/05/30 10:35:53;;;;;;;0.90;0.30;;;;;;;;;;5093822;28;20083;-90
2022/05/30 10:38:30;;;;;;;0.47;0.47;;;;;;;;;;5094912;28;20043;-86
2022/05/30 10:41:13;;;;;;;1.75;0.63;;;;;;;;;;5094306;28;20095;-90
2022/05/30 10:43:47;;;;;;;1.65;0.60;;;;;;;;;;5093446;28;20051;-88
2022/05/30 10:49:25;;;;;;;1.63;0.50;;;;;;;;;;5093924;28;20083;-89
2022/05/30 10:52:02;;;;;;;0.40;0.32;;;;;;;;;;5096976;28;20402;-89
2022/05/30 10:54:33;;;;;;;1.02;0.30;;;;;;;;;;5093966;28;20500;-93
2022/05/30 10:57:08;;;;;;;1.20;0.40;;;;;;;;;;5111731;28;20055;-91
2022/05/30 10:59:37;;;;;;;1.27;0.50;;;;;;;;;;5092269;28;20398;-85
2022/05/30 11:02:03;;;;;;;0.40;0.40;;;;;;;;;;5091901;28;20122;-93
2022/05/30 11:04:53;;;;;;;0.98;0.50;;;;;;;;;;5098626;28;20124;-87
2022/05/30 11:07:38;;;;;;;0.32;0.30;;;;;;;;;;5041481;28;20507;-90
2022/05/30 11:10:26;;;;;;;1.10;0.40;;;;;;;;;;5097048;28;20035;-92
2022/05/30 11:13:13;;;;;;;1.55;0.40;;;;;;;;;;5095830;28;20040;-88
2022/05/30 11:15:49;;;;;;;0.60;0.30;;;;;;;;;;5097126;28;20130;-90
2022/05/30 11:18:45;;;;;;;0.40;0.40;;;;;;;;;;5096941;28;20071;-89
2022/05/30 11:21:23;;;;;;;1.17;0.30;;;;;;;;;;5044206;28;20052;-88
2022/05/30 11:23:49;;;;;;;0.40;0.40;;;;;;;;;;5096208;28;20118;-87
2022/05/30 11:26:30;;;;;;;0.65;0.47;;;;;;;;;;5098184;28;20043;-88
2022/05/30 11:29:08;;;;;;;0.73;0.40;;;;;;;;;;5095176;28;20043;-83
2022/05/30 11:31:34;;;;;;;0.22;0.22;;;;;;;;;;5096645;28;20047;-89
2022/05/30 11:34:09;;;;;;;0.32;0.32;;;;;;;;;;5097111;28;20040;-89
2022/05/30 11:36:38;;;;;;;0.68;0.40;;;;;;;;;;5095509;28;20100;-85
2022/05/30 11:39:23;;;;;;;1.38;0.50;;;;;;;;;;5094906;28;20479;-87
2022/05/30 11:41:59;;;;;;;2.63;0.60;;;;;;;;;;5111851;28;20058;-81
2022/05/30 11:44:45;;;;;;;1.35;0.30;;;;;;;;;;5094941;28;20061;-80
2022/05/30 11:47:30;;;;;;;0.50;0.40;;;;;;;;;;5095341;28;20055;-84
2022/05/30 11:50:14;;;;;;;0.35;0.30;;;;;;;;;;5094661;28;20040;-84
2022/05/30 11:52:43;;;;;;;0.40;0.30;;;;;;;;;;5094825;28;20043;-83
2022/05/30 11:55:10;;;;;;;0.28;0.28;;;;;;;;;;5094588;28;20085;-83
2022/05/30 11:57:36;;;;;;;0.30;0.30;;;;;;;;;;5094523;28;20159;-81
2022/05/30 12:00:07;;;;;;;0.30;0.30;;;;;;;;;;5094805;28;20084;-82
2022/05/30 12:02:59;;;;;;;0.20;0.20;;;;;;;;;;5094414;28;20044;-86
2022/05/30 12:05:44;;;;;;;0.38;0.38;;;;;;;;;;5094303;28;20036;-86
2022/05/30 12:08:29;;;;;;;0.30;0.20;;;;;;;;;;5094571;28;20043;-86
2022/05/30 12:10:58;;;;;;;0.28;0.28;;;;;;;;;;5094336;28;20063;-86
2022/05/30 12:13:33;;;;;;;0.90;0.30;;;;;;;;;;5094104;28;20039;-83
2022/05/30 12:16:25;;;;;;;0.40;0.30;;;;;;;;;;5111193;28;20061;-85
2022/05/30 12:24:39;;;;;;;0.80;0.30;;;;;;;;;;5110929;28;20036;-87
2022/05/30 12:27:24;;;;;;;1.05;0.45;;;;;;;;;;5111318;28;20487;-87
2022/05/30 12:29:50;;;;;;;0.80;0.50;;;;;;;;;;5094447;28;20067;-88
2022/05/30 12:32:36;;;;;;;0.65;0.40;;;;;;;;;;5093931;28;20096;-85
2022/05/30 12:35:05;;;;;;;0.50;0.40;;;;;;;;;;5093938;28;20039;-87
2022/05/30 12:37:51;;;;;;;0.60;0.35;;;;;;;;;;5093925;28;20039;-86
2022/05/30 12:40:26;;;;;;;0.52;0.45;;;;;;;;;;5093824;28;20047;-87
2022/05/30 12:43:11;;;;;;;1.10;0.32;;;;;;;;;;5093689;28;20070;-86
2022/05/30 12:45:37;;;;;;;0.57;0.40;;;;;;;;;;5094125;28;20130;-87
2022/05/30 12:48:12;;;;;;;0.38;0.30;;;;;;;;;;5110817;28;20039;-86
2022/05/30 12:50:43;;;;;;;1.42;0.40;;;;;;;;;;5111483;28;20046;-87
2022/05/30 12:53:09;;;;;;;0.60;0.60;;;;;;;;;;5094163;28;20032;-88
2022/05/30 12:55:46;;;;;;;0.88;0.30;;;;;;;;;;5094504;28;20391;-89
2022/05/30 12:58:14;;;;;;;0.30;0.30;;;;;;;;;;5111320;28;20043;-82
2022/05/30 13:00:43;;;;;;;0.32;0.30;;;;;;;;;;5093737;28;20391;-81
2022/05/30 13:03:28;;;;;;;1.17;0.40;;;;;;;;;;5094521;28;20079;-86
2022/05/30 13:06:11;;;;;;;0.50;0.50;;;;;;;;;;5097644;28;20126;-88
2022/05/30 13:08:56;;;;;;;0.52;0.52;;;;;;;;;;5097367;28;20455;-87
2022/05/30 13:11:32;;;;;;;0.40;0.40;;;;;;;;;;5097312;28;20067;-85
2022/05/30 13:14:04;;;;;;;0.52;0.52;;;;;;;;;;5097854;28;20043;-84
2022/05/30 13:16:49;;;;;;;0.93;0.52;;;;;;;;;;5097644;28;20502;-84
2022/05/30 13:19:18;;;;;;;0.82;0.50;;;;;;;;;;5115457;28;20043;-86
2022/05/30 13:21:45;;;;;;;0.52;0.50;;;;;;;;;;5097407;28;20044;-86
2022/05/30 13:24:33;;;;;;;0.40;0.40;;;;;;;;;;5097729;28;20078;-85
2022/05/30 13:26:59;;;;;;;1.95;0.70;;;;;;;;;;5097579;28;20036;-90
2022/05/30 13:29:29;;;;;;;1.65;0.43;;;;;;;;;;5097206;28;20032;-87
2022/05/30 13:31:55;;;;;;;0.40;0.40;;;;;;;;;;5114457;28;20047;-82
2022/05/30 13:34:23;;;;;;;2.30;0.70;;;;;;;;;;5097011;28;20104;-87
2022/05/30 13:36:50;;;;;;;1.23;0.50;;;;;;;;;;5097165;28;20043;-85
2022/05/30 13:39:16;;;;;;;0.70;0.65;;;;;;;;;;5097267;28;20098;-89
2022/05/30 13:41:41;;;;;;;0.45;0.40;;;;;;;;;;5097086;28;20384;-83
2022/05/30 13:44:12;;;;;;;0.70;0.47;;;;;;;;;;5096900;28;20036;-85
2022/05/30 13:46:43;;;;;;;0.77;0.50;;;;;;;;;;5097064;28;20040;-90
2022/05/30 13:49:09;;;;;;;;;;;;;;;;;;5098131;28;20093;-89
2022/05/30 13:51:36;;;;;;;0.75;0.70;;;;;;;;;;5097811;28;20375;-87
2022/05/30 13:54:04;;;;;;;0.63;0.63;;;;;;;;;;5097209;28;20039;-85
2022/05/30 13:56:36;;;;;;;1.13;0.50;;;;;;;;;;5098112;28;20075;-93
2022/05/30 13:59:03;;;;;;;1.90;0.63;;;;;;;;;;5097130;28;20035;-86
2022/05/30 14:01:34;;;;;;;2.33;0.70;;;;;;;;;;5097161;28;20044;-85
2022/05/30 14:04:02;;;;;;;;;;;;;;;;;;5098467;28;20043;-94
2022/05/30 14:06:33;;;;;;;0.52;0.52;;;;;;;;;;5096647;28;19968;-83
2022/05/30 14:09:00;;;;;;;0.77;0.70;;;;;;;;;;5096162;28;20036;-85
2022/05/30 14:11:29;;;;;;;2.08;0.77;;;;;;;;;;5096511;28;20039;-90
2022/05/30 14:13:55;;;;;;;1.17;0.70;;;;;;;;;;5096191;28;20042;-90
2022/05/30 14:16:30;;;;;;;1.13;0.50;;;;;;;;;;5096432;28;20139;-88
2022/05/30 14:18:57;;;;;;;1.95;0.50;;;;;;;;;;5096942;28;20048;-88
2022/05/30 14:21:25;;;;;;;0.50;0.50;;;;;;;;;;5097494;28;20383;-91
2022/05/30 14:23:54;;;;;;;0.95;0.50;;;;;;;;;;5113785;28;20130;-84
2022/05/30 14:26:24;;;;;;;1.48;0.50;;;;;;;;;;5095955;28;20036;-84
2022/05/30 14:28:59;;;;;;;1.00;0.52;;;;;;;;;;5096882;28;20040;-88
2022/05/30 14:31:28;;;;;;;1.65;0.55;;;;;;;;;;5096213;28;20046;-85
2022/05/30 14:34:02;;;;;;;0.52;0.50;;;;;;;;;;5096012;28;20441;-86
2022/05/30 14:36:40;;;;;;;1.35;0.60;;;;;;;;;;5095977;28;20562;-84
2022/05/30 14:39:13;;;;;;;0.50;0.50;;;;;;;;;;5096137;28;20055;-83
2022/05/30 14:41:39;;;;;;;1.52;0.90;;;;;;;;;;5096301;28;20049;-84
2022/05/30 14:44:05;;;;;;;1.30;0.80;;;;;;;;;;5095745;28;20126;-78
2022/05/30 14:46:31;;;;;;;2.40;0.90;;;;;;;;;;5095413;28;20053;-78
2022/05/30 14:48:58;;;;;;;0.55;0.47;;;;;;;;;;5112361;28;20035;-81
2022/05/30 14:51:31;;;;;;;3.47;0.85;;;;;;;;;;5095237;28;20074;-81
2022/05/30 14:54:17;;;;;;;1.88;0.68;;;;;;;;;;5095264;28;20039;-87
2022/05/30 14:56:45;;;;;;;1.08;0.85;;;;;;;;;;5095583;28;20040;-84
2022/05/30 14:59:27;;;;;;;0.50;0.50;;;;;;;;;;5095201;28;20052;-81
2022/05/30 15:01:53;;;;;;;0.73;0.63;;;;;;;;;;5111996;28;20128;-80
2022/05/30 15:04:19;;;;;;;0.70;0.70;;;;;;;;;;5094814;28;20071;-79
2022/05/30 15:06:47;;;;;;;1.02;0.52;;;;;;;;;;5111744;28;20044;-78
2022/05/30 15:09:14;;;;;;;0.90;0.50;;;;;;;;;;5094818;28;20118;-78
2022/05/30 15:11:40;;;;;;;0.28;0.28;;;;;;;;;;5111784;28;20043;-78
2022/05/30 15:14:09;;;;;;;0.80;0.80;;;;;;;;;;5094664;28;20046;-78
2022/05/30 15:16:36;;;;;;;0.35;0.35;;;;;;;;;;5094695;28;20039;-78
2022/05/30 15:19:02;;;;;;;0.82;0.50;;;;;;;;;;5111780;28;20100;-78
2022/05/30 15:21:34;;;;;;;3.10;2.90;;;;;;;;;;5111586;28;20035;-79
2022/05/30 15:24:01;;;;;;;0.60;0.60;;;;;;;;;;5111650;28;20070;-79
2022/05/30 15:26:27;;;;;;;2.03;1.10;;;;;;;;;;5110683;28;20067;-79
2022/05/30 15:28:54;;;;;;;1.77;1.65;;;;;;;;;;5094475;28;20035;-79